sensor_id;sensor_type;location;lat;lon;timestamp;pressure;altitude;pressure_sealevel;temperature;humidity
58775;BME280;44545;47.480;19.024;2022-12-29T03:43:50;100753.88;;;-0.70;100.00
58775;BME280;44545;47.480;19.024;2022-12-29T03:46:53;100761.97;;;-0.74;100.00
58775;BME280;44545;47.480;19.024;2022-12-29T03:49:55;100758.97;;;-0.78;100.00
58775;BME280;44545;47.480;19.024;2022-12-29T03:52:58;100750.94;;;-0.81;100.00
58775;BME280;44545;47.480;19.024;2022-12-29T03:56:01;100754.88;;;-0.76;100.00
58775;BME280;44545;47.480;19.024;2022-12-29T03:59:03;100766.50;;;-0.71;100.00
58775;BME280;44545;47.480;19.024;2022-12-29T04:02:06;100764.44;;;-0.67;100.00
58775;BME280;44545;47.480;19.024;2022-12-29T04:05:08;100760.22;;;-0.66;100.00
58775;BME280;44545;47.480;19.024;2022-12-29T04:08:12;100765.94;;;-0.69;100.00
58775;BME280;44545;47.480;19.024;2022-12-29T04:11:15;100762.19;;;-0.63;100.00
58775;BME280;44545;47.480;19.024;2022-12-29T04:14:19;100761.78;;;-0.59;100.00
58775;BME280;44545;47.480;19.024;2022-12-29T04:17:22;100765.09;;;-0.60;100.00
58775;BME280;44545;47.480;19.024;2022-12-29T04:20:24;100769.28;;;-0.61;100.00
58775;BME280;44545;47.480;19.024;2022-12-29T04:23:46;100768.38;;;-0.61;100.00
58775;BME280;44545;47.480;19.024;2022-12-29T04:26:49;100763.84;;;-0.64;100.00
58775;BME280;44545;47.480;19.024;2022-12-29T04:29:54;100759.97;;;-0.60;100.00
58775;BME280;44545;47.480;19.024;2022-12-29T04:32:57;100765.09;;;-0.60;100.00
58775;BME280;44545;47.480;19.024;2022-12-29T04:36:00;100773.56;;;-0.53;100.00
58775;BME280;44545;47.480;19.024;2022-12-29T04:39:02;100768.69;;;-0.58;100.00
58775;BME280;44545;47.480;19.024;2022-12-29T04:42:07;100760.88;;;-0.60;100.00
58775;BME280;44545;47.480;19.024;2022-12-29T04:45:10;100758.81;;;-0.55;100.00
58775;BME280;44545;47.480;19.024;2022-12-29T04:48:15;100769.06;;;-0.47;100.00
58775;BME280;44545;47.480;19.024;2022-12-29T04:51:17;100758.44;;;-0.34;100.00
58775;BME280;44545;47.480;19.024;2022-12-29T04:54:20;100757.12;;;-0.30;100.00
58775;BME280;44545;47.480;19.024;2022-12-29T04:57:23;100765.59;;;-0.23;100.00
58775;BME280;44545;47.480;19.024;2022-12-29T05:00:25;100759.28;;;-0.17;100.00
58775;BME280;44545;47.480;19.024;2022-12-29T05:03:28;100759.47;;;-0.07;100.00
58775;BME280;44545;47.480;19.024;2022-12-29T05:06:31;100762.63;;;-0.01;100.00
58775;BME280;44545;47.480;19.024;2022-12-29T05:09:33;100762.34;;;0.05;100.00
58775;BME280;44545;47.480;19.024;2022-12-29T05:12:37;100760.44;;;0.11;100.00
58775;BME280;44545;47.480;19.024;2022-12-29T05:15:41;100762.09;;;0.10;100.00
58775;BME280;44545;47.480;19.024;2022-12-29T05:18:43;100759.34;;;0.09;100.00
58775;BME280;44545;47.480;19.024;2022-12-29T05:21:46;100761.03;;;0.08;100.00
58775;BME280;44545;47.480;19.024;2022-12-29T05:24:48;100753.94;;;0.06;100.00
58775;BME280;44545;47.480;19.024;2022-12-29T05:27:51;100756.63;;;0.07;100.00
58775;BME280;44545;47.480;19.024;2022-12-29T05:30:53;100757.81;;;0.02;100.00
58775;BME280;44545;47.480;19.024;2022-12-29T05:33:55;100758.69;;;-0.06;100.00
58775;BME280;44545;47.480;19.024;2022-12-29T05:36:58;100761.84;;;-0.17;100.00
58775;BME280;44545;47.480;19.024;2022-12-29T05:40:00;100759.41;;;-0.25;100.00
58775;BME280;44545;47.480;19.024;2022-12-29T05:43:03;100761.06;;;-0.25;100.00
58775;BME280;44545;47.480;19.024;2022-12-29T05:46:06;100752.00;;;-0.22;100.00
58775;BME280;44545;47.480;19.024;2022-12-29T05:49:09;100753.97;;;-0.28;100.00
58775;BME280;44545;47.480;19.024;2022-12-29T05:52:11;100751.41;;;-0.28;100.00
58775;BME280;44545;47.480;19.024;2022-12-29T05:55:14;100745.94;;;-0.31;100.00
58775;BME280;44545;47.480;19.024;2022-12-29T05:58:17;100741.56;;;-0.32;100.00
58775;BME280;44545;47.480;19.024;2022-12-29T06:01:21;100737.22;;;-0.33;100.00
58775;BME280;44545;47.480;19.024;2022-12-29T06:04:24;100731.13;;;-0.42;100.00
58775;BME280;44545;47.480;19.024;2022-12-29T06:07:27;100728.47;;;-0.35;100.00
58775;BME280;44545;47.480;19.024;2022-12-29T06:10:29;100742.34;;;-0.33;100.00
58775;BME280;44545;47.480;19.024;2022-12-29T06:13:32;100737.94;;;-0.34;100.00
58775;BME280;44545;47.480;19.024;2022-12-29T06:16:34;100745.22;;;-0.30;100.00
58775;BME280;44545;47.480;19.024;2022-12-29T06:19:38;100741.87;;;-0.29;100.00
58775;BME280;44545;47.480;19.024;2022-12-29T06:22:41;100734.59;;;-0.41;100.00
58775;BME280;44545;47.480;19.024;2022-12-29T06:25:43;100742.59;;;-0.38;100.00
58775;BME280;44545;47.480;19.024;2022-12-29T06:28:47;100739.00;;;-0.32;100.00
58775;BME280;44545;47.480;19.024;2022-12-29T06:31:50;100739.63;;;-0.26;100.00
58775;BME280;44545;47.480;19.024;2022-12-29T06:34:58;100743.84;;;-0.26;100.00
58775;BME280;44545;47.480;19.024;2022-12-29T06:38:01;100743.84;;;-0.35;100.00
58775;BME280;44545;47.480;19.024;2022-12-29T06:41:04;100744.12;;;-0.40;100.00
58775;BME280;44545;47.480;19.024;2022-12-29T06:44:11;100743.47;;;-0.47;100.00
58775;BME280;44545;47.480;19.024;2022-12-29T06:47:15;100752.53;;;-0.41;100.00
58775;BME280;44545;47.480;19.024;2022-12-29T06:50:17;100753.03;;;-0.28;100.00
58775;BME280;44545;47.480;19.024;2022-12-29T06:53:20;100753.50;;;-0.24;100.00
58775;BME280;44545;47.480;19.024;2022-12-29T06:56:22;100753.22;;;-0.18;100.00
58775;BME280;44545;47.480;19.024;2022-12-29T06:59:24;100759.00;;;-0.12;100.00
58775;BME280;44545;47.480;19.024;2022-12-29T07:02:27;100758.09;;;-0.04;100.00
58775;BME280;44545;47.480;19.024;2022-12-29T07:05:30;100756.31;;;0.04;100.00
58775;BME280;44545;47.480;19.024;2022-12-29T07:08:34;100763.59;;;0.17;100.00
58775;BME280;44545;47.480;19.024;2022-12-29T07:11:37;100756.38;;;0.30;100.00
58775;BME280;44545;47.480;19.024;2022-12-29T07:14:39;100762.87;;;0.27;100.00
58775;BME280;44545;47.480;19.024;2022-12-29T07:17:44;100770.88;;;0.30;100.00
58775;BME280;44545;47.480;19.024;2022-12-29T07:20:47;100759.09;;;0.32;100.00
58775;BME280;44545;47.480;19.024;2022-12-29T07:23:50;100761.84;;;0.42;100.00
58775;BME280;44545;47.480;19.024;2022-12-29T07:26:52;100770.78;;;0.54;100.00
58775;BME280;44545;47.480;19.024;2022-12-29T07:29:54;100770.62;;;0.70;100.00
58775;BME280;44545;47.480;19.024;2022-12-29T07:32:57;100765.34;;;1.03;100.00
58775;BME280;44545;47.480;19.024;2022-12-29T07:35:59;100768.78;;;1.30;100.00
58775;BME280;44545;47.480;19.024;2022-12-29T07:39:02;100768.00;;;1.31;99.39
58775;BME280;44545;47.480;19.024;2022-12-29T07:42:05;100761.53;;;1.35;99.35
58775;BME280;44545;47.480;19.024;2022-12-29T07:45:09;100763.00;;;1.50;98.05
58775;BME280;44545;47.480;19.024;2022-12-29T07:48:12;100765.38;;;1.66;96.74
58775;BME280;44545;47.480;19.024;2022-12-29T07:51:14;100769.44;;;1.72;96.17
58775;BME280;44545;47.480;19.024;2022-12-29T07:54:17;100776.94;;;1.80;95.38
58775;BME280;44545;47.480;19.024;2022-12-29T07:57:20;100774.34;;;1.88;94.75
58775;BME280;44545;47.480;19.024;2022-12-29T08:00:31;100773.50;;;2.07;93.07
58775;BME280;44545;47.480;19.024;2022-12-29T08:03:33;100768.19;;;2.14;93.47
58775;BME280;44545;47.480;19.024;2022-12-29T08:06:35;100777.66;;;1.96;93.17
58775;BME280;44545;47.480;19.024;2022-12-29T08:09:39;100778.84;;;2.00;93.07
58775;BME280;44545;47.480;19.024;2022-12-29T08:12:42;100767.81;;;2.01;93.14
58775;BME280;44545;47.480;19.024;2022-12-29T08:15:45;100765.94;;;2.36;91.32
58775;BME280;44545;47.480;19.024;2022-12-29T08:18:47;100764.56;;;3.34;86.47
58775;BME280;44545;47.480;19.024;2022-12-29T08:21:50;100757.25;;;3.88;82.98
58775;BME280;44545;47.480;19.024;2022-12-29T08:24:53;100756.91;;;3.55;82.20
58775;BME280;44545;47.480;19.024;2022-12-29T08:27:56;100751.78;;;2.88;85.23
58775;BME280;44545;47.480;19.024;2022-12-29T08:31:00;100755.81;;;2.56;86.85
58775;BME280;44545;47.480;19.024;2022-12-29T08:34:03;100749.91;;;2.02;89.65
58775;BME280;44545;47.480;19.024;2022-12-29T08:37:05;100739.09;;;1.87;91.55
58775;BME280;44545;47.480;19.024;2022-12-29T08:40:08;100741.38;;;1.84;91.82
58775;BME280;44545;47.480;19.024;2022-12-29T08:43:11;100750.16;;;1.86;92.61
58775;BME280;44545;47.480;19.024;2022-12-29T08:46:19;100751.47;;;2.00;92.59
58775;BME280;44545;47.480;19.024;2022-12-29T08:49:22;100756.06;;;1.85;92.79
58775;BME280;44545;47.480;19.024;2022-12-29T08:52:25;100747.12;;;1.90;92.39
58775;BME280;44545;47.480;19.024;2022-12-29T08:55:27;100759.69;;;2.15;91.89
58775;BME280;44545;47.480;19.024;2022-12-29T08:58:31;100742.56;;;2.24;90.67
58775;BME280;44545;47.480;19.024;2022-12-29T09:01:33;100744.16;;;2.05;91.32
58775;BME280;44545;47.480;19.024;2022-12-29T09:04:38;100737.84;;;2.29;90.59
58775;BME280;44545;47.480;19.024;2022-12-29T09:07:41;100740.06;;;2.07;91.34
58775;BME280;44545;47.480;19.024;2022-12-29T09:10:44;100737.78;;;2.10;91.61
58775;BME280;44545;47.480;19.024;2022-12-29T09:13:46;100732.94;;;2.13;91.33
58775;BME280;44545;47.480;19.024;2022-12-29T09:16:51;100724.44;;;2.42;90.93
58775;BME280;44545;47.480;19.024;2022-12-29T09:20:21;100724.13;;;2.95;88.04
58775;BME280;44545;47.480;19.024;2022-12-29T09:23:24;100708.81;;;3.55;84.93
58775;BME280;44545;47.480;19.024;2022-12-29T09:26:27;100708.06;;;3.66;83.00
58775;BME280;44545;47.480;19.024;2022-12-29T09:29:29;100718.03;;;3.43;83.55
58775;BME280;44545;47.480;19.024;2022-12-29T09:32:32;100704.56;;;2.97;85.32
58775;BME280;44545;47.480;19.024;2022-12-29T09:35:36;100704.66;;;3.18;85.03
58775;BME280;44545;47.480;19.024;2022-12-29T09:38:38;100708.19;;;3.29;84.51
58775;BME280;44545;47.480;19.024;2022-12-29T09:45:24;100692.22;;;3.03;84.91
58775;BME280;44545;47.480;19.024;2022-12-29T09:48:35;100691.19;;;3.31;84.81
58775;BME280;44545;47.480;19.024;2022-12-29T09:51:43;100688.56;;;3.20;85.13
58775;BME280;44545;47.480;19.024;2022-12-29T09:55:03;100694.37;;;3.18;84.83
58775;BME280;44545;47.480;19.024;2022-12-29T09:58:37;100690.72;;;3.45;83.96
58775;BME280;44545;47.480;19.024;2022-12-29T10:02:10;100690.22;;;3.59;82.52
58775;BME280;44545;47.480;19.024;2022-12-29T10:05:27;100679.56;;;3.55;83.08
58775;BME280;44545;47.480;19.024;2022-12-29T10:23:04;100658.31;;;3.78;82.05
58775;BME280;44545;47.480;19.024;2022-12-29T10:26:27;100653.56;;;4.13;80.79
58775;BME280;44545;47.480;19.024;2022-12-29T10:29:35;100651.88;;;3.83;80.62
58775;BME280;44545;47.480;19.024;2022-12-29T10:35:50;100653.66;;;3.94;80.46
58775;BME280;44545;47.480;19.024;2022-12-29T10:39:23;100649.75;;;4.50;79.76
58775;BME280;44545;47.480;19.024;2022-12-29T10:42:36;100647.50;;;5.40;75.29
58775;BME280;44545;47.480;19.024;2022-12-29T10:45:43;100640.34;;;6.72;69.44
58775;BME280;44545;47.480;19.024;2022-12-29T10:48:45;100627.84;;;10.04;56.37
58775;BME280;44545;47.480;19.024;2022-12-29T10:51:50;100618.19;;;12.90;46.92
58775;BME280;44545;47.480;19.024;2022-12-29T10:55:00;100615.19;;;13.00;44.69
58775;BME280;44545;47.480;19.024;2022-12-29T10:58:06;100615.50;;;11.85;46.54
58775;BME280;44545;47.480;19.024;2022-12-29T11:01:10;100610.44;;;10.47;49.37
58775;BME280;44545;47.480;19.024;2022-12-29T11:04:30;100619.25;;;8.94;53.83
58775;BME280;44545;47.480;19.024;2022-12-29T11:07:37;100618.41;;;7.65;58.49
58775;BME280;44545;47.480;19.024;2022-12-29T11:10:43;100620.69;;;7.11;60.92
58775;BME280;44545;47.480;19.024;2022-12-29T11:13:48;100616.59;;;8.27;58.40
58775;BME280;44545;47.480;19.024;2022-12-29T11:16:59;100608.03;;;9.77;53.28
58775;BME280;44545;47.480;19.024;2022-12-29T11:23:39;100599.19;;;12.94;44.59
58775;BME280;44545;47.480;19.024;2022-12-29T11:26:43;100604.28;;;12.21;44.93
58775;BME280;44545;47.480;19.024;2022-12-29T11:29:46;100592.66;;;13.59;42.09
58775;BME280;44545;47.480;19.024;2022-12-29T11:32:53;100583.50;;;15.85;37.60
58775;BME280;44545;47.480;19.024;2022-12-29T11:36:02;100572.94;;;18.05;32.13
58775;BME280;44545;47.480;19.024;2022-12-29T11:39:06;100566.19;;;19.22;30.57
58775;BME280;44545;47.480;19.024;2022-12-29T11:42:48;100560.78;;;19.58;29.15
58775;BME280;44545;47.480;19.024;2022-12-29T11:45:53;100551.28;;;21.23;26.72
58775;BME280;44545;47.480;19.024;2022-12-29T11:48:56;100555.19;;;23.56;23.59
58775;BME280;44545;47.480;19.024;2022-12-29T11:52:01;100556.13;;;23.69;23.28
58775;BME280;44545;47.480;19.024;2022-12-29T11:55:05;100543.00;;;22.51;24.13
58775;BME280;44545;47.480;19.024;2022-12-29T11:58:14;100543.50;;;23.20;23.24
58775;BME280;44545;47.480;19.024;2022-12-29T12:04:34;100558.53;;;21.35;25.29
58775;BME280;44545;47.480;19.024;2022-12-29T12:07:41;100562.78;;;19.68;27.28
58775;BME280;44545;47.480;19.024;2022-12-29T12:10:50;100562.97;;;18.61;29.38
58775;BME280;44545;47.480;19.024;2022-12-29T12:14:01;100569.50;;;18.07;30.21
58775;BME280;44545;47.480;19.024;2022-12-29T12:17:11;100554.28;;;17.97;30.66
58775;BME280;44545;47.480;19.024;2022-12-29T12:27:31;100572.69;;;9.53;48.46
58775;BME280;44545;47.480;19.024;2022-12-29T12:30:28;100574.84;;;7.86;54.76
58775;BME280;44545;47.480;19.024;2022-12-29T12:33:42;100558.84;;;6.92;59.51
58775;BME280;44545;47.480;19.024;2022-12-29T12:36:59;100555.37;;;6.10;62.70
58775;BME280;44545;47.480;19.024;2022-12-29T12:40:33;100548.59;;;5.88;64.92
58775;BME280;44545;47.480;19.024;2022-12-29T12:43:46;100537.16;;;5.62;67.38
58775;BME280;44545;47.480;19.024;2022-12-29T13:00:16;100538.25;;;5.20;72.20
58775;BME280;44545;47.480;19.024;2022-12-29T13:17:18;100556.16;;;4.43;78.59
58775;BME280;44545;47.480;19.024;2022-12-29T13:20:46;100554.22;;;4.50;78.35
58775;BME280;44545;47.480;19.024;2022-12-29T13:24:15;100560.03;;;4.48;78.98
58775;BME280;44545;47.480;19.024;2022-12-29T13:27:43;100552.56;;;4.51;79.33
58775;BME280;44545;47.480;19.024;2022-12-29T13:30:59;100561.56;;;4.56;79.33
58775;BME280;44545;47.480;19.024;2022-12-29T13:37:20;100559.78;;;4.45;80.00
58775;BME280;44545;47.480;19.024;2022-12-29T13:40:32;100555.81;;;4.28;80.99
58775;BME280;44545;47.480;19.024;2022-12-29T13:43:39;100559.63;;;4.11;81.83
58775;BME280;44545;47.480;19.024;2022-12-29T13:46:44;100564.78;;;4.01;82.62
58775;BME280;44545;47.480;19.024;2022-12-29T13:49:50;100568.53;;;4.04;82.96
58775;BME280;44545;47.480;19.024;2022-12-29T13:53:20;100560.53;;;3.91;83.33
58775;BME280;44545;47.480;19.024;2022-12-29T13:56:38;100558.75;;;3.90;83.72
58775;BME280;44545;47.480;19.024;2022-12-29T13:59:49;100560.94;;;3.96;83.76
58775;BME280;44545;47.480;19.024;2022-12-29T14:03:20;100566.09;;;3.96;84.79
58775;BME280;44545;47.480;19.024;2022-12-29T14:06:34;100565.06;;;3.83;85.28
58775;BME280;44545;47.480;19.024;2022-12-29T14:09:49;100567.13;;;3.77;85.94
58775;BME280;44545;47.480;19.024;2022-12-29T14:13:02;100568.28;;;3.60;86.40
58775;BME280;44545;47.480;19.024;2022-12-29T14:16:05;100570.62;;;3.47;87.48
58775;BME280;44545;47.480;19.024;2022-12-29T14:19:16;100572.00;;;3.33;88.45
58775;BME280;44545;47.480;19.024;2022-12-29T14:22:24;100582.13;;;3.21;89.44
58775;BME280;44545;47.480;19.024;2022-12-29T14:25:57;100565.16;;;3.23;89.63
58775;BME280;44545;47.480;19.024;2022-12-29T14:30:02;100569.22;;;3.11;90.66
58775;BME280;44545;47.480;19.024;2022-12-29T14:32:39;100568.19;;;2.99;91.20
58775;BME280;44545;47.480;19.024;2022-12-29T14:36:32;100561.69;;;2.83;92.17
58775;BME280;44545;47.480;19.024;2022-12-29T14:39:43;100569.16;;;2.80;92.89
58775;BME280;44545;47.480;19.024;2022-12-29T14:42:47;100569.25;;;2.72;93.34
58775;BME280;44545;47.480;19.024;2022-12-29T14:45:54;100580.94;;;2.68;93.97
